createdAt,value
2018-08-06T00:00:35.807Z,2.07
2018-08-06T00:03:04.698Z,1.80
2018-08-06T00:05:33.848Z,2.00
2018-08-06T00:08:03.090Z,2.10
2018-08-06T00:10:32.383Z,2.00
2018-08-06T00:13:01.665Z,1.70
2018-08-06T00:15:30.701Z,2.10
2018-08-06T00:17:59.880Z,2.10
2018-08-06T00:20:28.724Z,2.20
2018-08-06T00:22:57.477Z,2.20
2018-08-06T00:25:26.230Z,1.80
2018-08-06T00:27:54.998Z,1.93
2018-08-06T00:30:24.135Z,1.97
2018-08-06T00:32:53.361Z,2.50
2018-08-06T00:35:22.686Z,2.00
2018-08-06T00:37:52.056Z,1.97
2018-08-06T00:40:21.811Z,2.30
2018-08-06T00:42:50.826Z,2.20
2018-08-06T00:45:21.186Z,2.40
2018-08-06T00:47:50.744Z,2.17
2018-08-06T00:50:19.617Z,2.07
2018-08-06T00:52:48.754Z,2.53
2018-08-06T00:55:18.862Z,2.60
2018-08-06T00:57:47.631Z,2.20
2018-08-06T01:00:18.712Z,2.37
2018-08-06T01:02:47.489Z,2.23
2018-08-06T01:05:17.079Z,2.57
2018-08-06T01:07:46.298Z,2.20
2018-08-06T01:10:17.628Z,2.33
2018-08-06T01:12:46.555Z,2.40
2018-08-06T01:15:15.996Z,2.90
2018-08-06T01:17:45.890Z,2.80
2018-08-06T01:20:15.052Z,2.27
2018-08-06T01:22:44.907Z,3.03
2018-08-06T01:25:14.180Z,2.07
2018-08-06T01:27:44.246Z,2.50
2018-08-06T01:30:13.934Z,2.40
2018-08-06T01:32:43.795Z,2.63
2018-08-06T01:35:12.795Z,2.40
2018-08-06T01:37:41.581Z,2.60
2018-08-06T01:40:12.334Z,2.53
2018-08-06T01:42:41.749Z,2.83
2018-08-06T01:45:11.287Z,2.63
2018-08-06T01:47:40.460Z,2.50
2018-08-06T01:50:10.548Z,2.50
2018-08-06T01:52:39.685Z,2.97
2018-08-06T01:55:08.443Z,2.80
2018-08-06T01:57:37.594Z,2.77
2018-08-06T02:00:07.464Z,2.70
2018-08-06T02:02:36.316Z,2.53
2018-08-06T02:05:05.745Z,2.97
2018-08-06T02:07:34.719Z,2.83
2018-08-06T02:10:03.511Z,2.53
2018-08-06T02:12:32.284Z,2.60
2018-08-06T02:15:01.496Z,2.47
2018-08-06T02:17:30.374Z,2.43
2018-08-06T02:19:59.177Z,2.40
2018-08-06T02:22:28.311Z,2.43
2018-08-06T02:24:57.138Z,2.33
2018-08-06T02:27:25.944Z,2.93
2018-08-06T02:29:55.055Z,2.63
2018-08-06T02:32:23.945Z,2.63
2018-08-06T02:34:53.893Z,2.97
2018-08-06T02:37:22.675Z,2.60
2018-08-06T02:39:52.272Z,3.80
2018-08-06T02:42:21.173Z,3.20
2018-08-06T02:44:49.939Z,3.90
2018-08-06T02:47:19.792Z,3.77
2018-08-06T02:49:48.554Z,3.30
2018-08-06T02:52:17.399Z,3.63
2018-08-06T02:54:46.158Z,3.33
2018-08-06T02:57:15.318Z,3.00
2018-08-06T02:59:44.200Z,4.10
2018-08-06T03:02:12.930Z,3.33
2018-08-06T03:04:41.713Z,3.97
2018-08-06T03:07:10.869Z,3.30
2018-08-06T03:09:40.142Z,3.70
2018-08-06T03:12:09.008Z,3.50
2018-08-06T03:14:37.791Z,3.70
2018-08-06T03:17:06.655Z,3.60
2018-08-06T03:19:35.338Z,3.67
2018-08-06T03:22:04.094Z,3.27
2018-08-06T03:24:32.848Z,3.13
2018-08-06T03:27:01.617Z,3.30
2018-08-06T03:29:30.426Z,3.70
2018-08-06T03:31:59.495Z,3.67
2018-08-06T03:34:28.247Z,3.50
2018-08-06T03:36:57.802Z,3.53
2018-08-06T03:39:26.554Z,3.60
2018-08-06T03:41:55.319Z,3.20
2018-08-06T03:44:24.493Z,3.60
2018-08-06T03:46:53.286Z,3.47
2018-08-06T03:49:22.045Z,3.60
2018-08-06T03:51:51.248Z,4.30
2018-08-06T03:54:20.109Z,4.37
2018-08-06T03:56:48.866Z,4.07
2018-08-06T03:59:17.648Z,4.50
2018-08-06T04:01:46.708Z,4.30
2018-08-06T04:04:15.432Z,3.97
2018-08-06T04:06:44.187Z,4.00
2018-08-06T04:09:12.960Z,4.00
2018-08-06T04:11:41.683Z,3.90
2018-08-06T04:14:10.457Z,4.73
2018-08-06T04:16:41.619Z,4.40
2018-08-06T04:19:11.396Z,3.77
2018-08-06T04:21:40.268Z,4.23
2018-08-06T04:24:09.782Z,3.70
2018-08-06T04:26:39.527Z,4.73
2018-08-06T04:29:14.782Z,4.50
2018-08-06T04:31:43.549Z,5.20
2018-08-06T04:34:12.299Z,6.03
2018-08-06T04:36:41.110Z,6.93
2018-08-06T04:39:09.876Z,6.37
2018-08-06T04:41:38.626Z,5.27
2018-08-06T04:44:07.371Z,5.10
2018-08-06T04:46:36.180Z,5.80
2018-08-06T04:49:06.000Z,5.30
2018-08-06T04:51:34.747Z,5.80
2018-08-06T04:54:05.399Z,5.53
2018-08-06T04:56:34.273Z,5.03
2018-08-06T04:59:03.063Z,5.00
2018-08-06T05:01:31.808Z,5.47
2018-08-06T05:04:00.554Z,5.33
2018-08-06T05:06:29.286Z,4.90
2018-08-06T05:08:58.097Z,6.53
2018-08-06T05:11:26.838Z,5.73
2018-08-06T05:13:55.656Z,5.27
2018-08-06T05:16:24.409Z,5.47
2018-08-06T05:18:53.207Z,5.60
2018-08-06T05:21:21.958Z,5.20
2018-08-06T05:23:53.906Z,4.90
2018-08-06T05:26:22.717Z,4.63
2018-08-06T05:28:52.473Z,4.27
2018-08-06T05:31:22.894Z,4.27
2018-08-06T05:36:26.902Z,3.87
2018-08-06T05:38:56.144Z,3.70
2018-08-06T05:41:26.055Z,3.30
2018-08-06T05:43:55.766Z,3.37
2018-08-06T05:46:24.787Z,3.27
2018-08-06T05:48:53.694Z,3.20
2018-08-06T05:51:22.493Z,3.80
2018-08-06T05:53:51.249Z,3.27
2018-08-06T05:56:20.000Z,2.43
2018-08-06T05:58:48.758Z,2.57
2018-08-06T06:01:17.569Z,2.80
2018-08-06T06:03:46.365Z,2.27
2018-08-06T06:06:16.003Z,2.27
2018-08-06T06:08:45.273Z,2.50
2018-08-06T06:11:14.987Z,2.60
2018-08-06T06:13:43.778Z,3.20
2018-08-06T06:16:13.595Z,3.37
2018-08-06T06:21:18.007Z,2.00
2018-08-06T06:23:47.279Z,3.43
2018-08-06T06:26:17.562Z,2.20
2018-08-06T06:28:46.772Z,1.77
2018-08-06T06:31:15.772Z,2.10
2018-08-06T06:33:44.670Z,1.93
2018-08-06T06:36:13.847Z,1.87
2018-08-06T06:38:42.587Z,2.00
2018-08-06T06:41:11.410Z,2.07
2018-08-06T06:43:40.617Z,1.90
2018-08-06T06:46:09.492Z,1.90
2018-08-06T06:48:38.267Z,1.40
2018-08-06T06:51:07.079Z,1.53
2018-08-06T06:53:35.872Z,1.53
2018-08-06T06:56:05.178Z,1.50
2018-08-06T06:58:34.069Z,1.70
2018-08-06T07:01:02.869Z,1.43
2018-08-06T07:03:31.814Z,1.83
2018-08-06T07:06:00.560Z,1.83
2018-08-06T07:08:29.302Z,1.97
2018-08-06T07:10:58.501Z,1.87
2018-08-06T07:13:27.394Z,2.03
2018-08-06T07:15:56.603Z,1.70
2018-08-06T07:18:25.443Z,2.60
2018-08-06T07:20:54.196Z,2.33
2018-08-06T07:23:23.824Z,2.30
2018-08-06T07:25:52.625Z,2.17
2018-08-06T07:28:22.255Z,2.03
2018-08-06T07:30:51.278Z,2.30
2018-08-06T07:33:20.094Z,2.42
2018-08-06T07:35:48.874Z,2.45
2018-08-06T07:38:18.074Z,1.82
2018-08-06T07:40:47.054Z,3.15
2018-08-06T07:43:15.889Z,2.65
2018-08-06T07:45:45.067Z,2.08
2018-08-06T07:48:13.919Z,2.47
2018-08-06T07:50:42.663Z,2.15
2018-08-06T07:53:11.550Z,2.00
2018-08-06T07:55:40.687Z,1.95
2018-08-06T07:58:10.652Z,2.60
2018-08-06T08:00:39.922Z,1.98
2018-08-06T08:03:08.829Z,2.77
2018-08-06T08:05:38.059Z,2.20
2018-08-06T08:08:07.387Z,2.12
2018-08-06T08:10:36.268Z,2.02
2018-08-06T08:13:05.246Z,2.10
2018-08-06T08:15:34.002Z,1.92
2018-08-06T08:18:03.273Z,1.90
2018-08-06T08:20:33.256Z,2.30
2018-08-06T08:23:02.091Z,2.08
2018-08-06T08:25:31.796Z,2.30
2018-08-06T08:28:01.035Z,2.20
2018-08-06T08:30:30.285Z,2.10
2018-08-06T08:32:59.933Z,2.08
2018-08-06T08:35:31.243Z,1.87
2018-08-06T08:38:00.878Z,1.77
2018-08-06T08:40:29.686Z,2.27
2018-08-06T08:42:58.499Z,2.22
2018-08-06T08:45:27.379Z,2.17
2018-08-06T08:47:56.451Z,1.62
2018-08-06T08:50:25.426Z,2.12
2018-08-06T08:52:54.169Z,2.20
2018-08-06T08:55:23.005Z,2.40
2018-08-06T08:57:51.815Z,2.10
2018-08-06T09:00:22.103Z,2.65
2018-08-06T09:02:51.802Z,2.08
2018-08-06T09:05:20.826Z,2.05
2018-08-06T09:07:50.671Z,1.87
2018-08-06T09:10:19.969Z,1.82
2018-08-06T09:12:49.085Z,1.90
2018-08-06T09:15:19.028Z,2.27
2018-08-06T09:17:48.281Z,2.83
2018-08-06T09:20:17.283Z,2.40
2018-08-06T09:22:46.542Z,2.17
2018-08-06T09:25:15.996Z,2.10
2018-08-06T09:27:46.664Z,2.05
2018-08-06T09:30:16.875Z,1.87
2018-08-06T09:32:46.926Z,2.30
2018-08-06T09:35:16.616Z,2.50
2018-08-06T09:37:45.747Z,1.90
2018-08-06T09:40:15.824Z,2.33
2018-08-06T09:42:45.218Z,2.33
2018-08-06T09:45:15.175Z,2.60
2018-08-06T09:47:44.987Z,2.08
2018-08-06T09:50:14.492Z,2.30
2018-08-06T09:52:44.303Z,2.62
2018-08-06T09:55:14.942Z,2.15
2018-08-06T09:57:43.868Z,2.20
2018-08-06T10:00:20.311Z,2.77
2018-08-06T10:02:50.194Z,2.42
2018-08-06T10:05:20.532Z,2.45
2018-08-06T10:07:49.571Z,2.65
2018-08-06T10:10:18.761Z,2.10
2018-08-06T10:12:48.118Z,2.83
2018-08-06T10:15:17.395Z,2.60
2018-08-06T10:17:47.342Z,3.20
2018-08-06T10:20:17.839Z,2.77
2018-08-06T10:22:47.168Z,2.77
2018-08-06T10:25:16.346Z,2.42
2018-08-06T10:27:45.851Z,3.02
2018-08-06T10:30:17.886Z,2.75
2018-08-06T10:32:46.810Z,2.33
2018-08-06T10:35:17.107Z,2.27
2018-08-06T10:37:46.391Z,3.50
2018-08-06T10:40:17.826Z,2.60
2018-08-06T10:42:47.061Z,2.58
2018-08-06T10:45:17.190Z,2.62
2018-08-06T10:47:46.613Z,2.70
2018-08-06T10:50:15.544Z,2.52
2018-08-06T10:52:45.008Z,2.30
2018-08-06T10:55:13.978Z,2.50
2018-08-06T10:57:45.033Z,2.37
2018-08-06T11:00:15.623Z,2.58
2018-08-06T11:02:44.527Z,2.30
2018-08-06T11:05:14.339Z,2.45
2018-08-06T11:07:43.847Z,2.55
2018-08-06T11:10:15.419Z,2.47
2018-08-06T11:12:44.338Z,2.30
2018-08-06T11:15:15.638Z,2.65
2018-08-06T11:17:45.631Z,2.45
2018-08-06T11:20:15.407Z,1.95
2018-08-06T11:22:44.442Z,2.60
2018-08-06T11:25:13.974Z,2.52
2018-08-06T11:27:44.222Z,2.40
2018-08-06T11:30:14.434Z,2.87
2018-08-06T11:32:45.515Z,2.20
2018-08-06T11:35:21.146Z,2.17
2018-08-06T11:37:49.943Z,2.05
2018-08-06T11:40:18.870Z,2.60
2018-08-06T11:42:48.874Z,2.08
2018-08-06T11:45:18.899Z,2.70
2018-08-06T11:47:48.095Z,2.35
2018-08-06T11:50:17.423Z,2.50
2018-08-06T11:52:46.918Z,2.42
2018-08-06T11:55:16.068Z,2.58
2018-08-06T11:57:46.579Z,2.02
2018-08-06T12:00:18.337Z,2.50
2018-08-06T12:02:47.215Z,2.60
2018-08-06T12:05:16.148Z,2.52
2018-08-06T12:07:47.092Z,2.33
2018-08-06T12:10:17.411Z,2.60
2018-08-06T12:12:47.630Z,2.40
2018-08-06T12:15:16.937Z,2.20
2018-08-06T12:17:46.830Z,2.30
2018-08-06T12:20:17.856Z,1.82
2018-08-06T12:22:49.762Z,2.47
2018-08-06T12:25:18.881Z,1.72
2018-08-06T12:27:48.459Z,2.10
2018-08-06T12:30:18.831Z,1.98
2018-08-06T12:32:49.666Z,2.10
2018-08-06T12:35:18.697Z,2.00
2018-08-06T12:37:48.777Z,1.70
2018-08-06T12:40:19.794Z,1.72
2018-08-06T12:42:49.619Z,1.92
2018-08-06T12:45:18.565Z,1.70
2018-08-06T12:47:47.701Z,2.10
2018-08-06T12:50:17.195Z,1.98
2018-08-06T12:52:46.103Z,1.67
2018-08-06T12:55:16.219Z,1.42
2018-08-06T12:57:45.579Z,1.60
2018-08-06T13:00:20.445Z,1.85
2018-08-06T13:02:51.077Z,1.70
2018-08-06T13:05:20.890Z,1.65
2018-08-06T13:07:51.308Z,1.45
2018-08-06T13:10:20.147Z,2.25
2018-08-06T13:12:49.363Z,1.70
2018-08-06T13:15:18.591Z,2.00
2018-08-06T13:17:47.796Z,1.80
2018-08-06T13:20:17.041Z,2.00
2018-08-06T13:22:45.961Z,2.05
2018-08-06T13:25:14.774Z,1.60
2018-08-06T13:27:43.531Z,1.55
2018-08-06T13:30:14.748Z,1.30
2018-08-06T13:32:44.684Z,1.85
2018-08-06T13:35:14.378Z,1.92
2018-08-06T13:37:43.177Z,1.70
2018-08-06T13:40:12.328Z,1.62
2018-08-06T13:42:41.124Z,1.67
2018-08-06T13:45:12.343Z,1.70
2018-08-06T13:47:41.258Z,1.95
2018-08-06T13:50:10.354Z,1.90
2018-08-06T13:52:39.117Z,1.70
2018-08-06T13:55:09.880Z,1.60
2018-08-06T13:57:38.983Z,2.05
2018-08-06T14:00:13.266Z,2.25
2018-08-06T14:02:42.478Z,2.10
2018-08-06T14:05:12.766Z,1.98
2018-08-06T14:07:41.827Z,2.17
2018-08-06T14:10:10.999Z,1.80
2018-08-06T14:12:40.072Z,1.87
2018-08-06T14:15:10.633Z,2.25
2018-08-06T14:17:40.501Z,1.85
2018-08-06T14:20:11.215Z,2.10
2018-08-06T14:22:40.092Z,1.90
2018-08-06T14:25:10.000Z,1.90
2018-08-06T14:27:39.956Z,1.90
2018-08-06T14:30:12.309Z,2.40
2018-08-06T14:32:41.711Z,1.87
2018-08-06T14:35:10.521Z,2.05
2018-08-06T14:37:39.903Z,1.72
2018-08-06T14:40:09.682Z,1.90
2018-08-06T14:42:39.174Z,1.80
2018-08-06T14:45:09.211Z,1.70
2018-08-06T14:47:39.218Z,1.90
2018-08-06T14:50:09.763Z,1.72
2018-08-06T14:52:39.420Z,1.70
2018-08-06T14:55:08.708Z,1.90
2018-08-06T14:57:40.803Z,1.77
2018-08-06T15:00:12.886Z,2.02
2018-08-06T15:02:41.820Z,1.75
2018-08-06T15:05:11.123Z,2.00
2018-08-06T15:07:42.194Z,2.05
2018-08-06T15:10:12.676Z,2.65
2018-08-06T15:12:42.673Z,2.05
2018-08-06T15:15:13.605Z,2.08
2018-08-06T15:17:43.065Z,2.10
2018-08-06T15:20:14.126Z,1.98
2018-08-06T15:22:42.974Z,2.47
2018-08-06T15:25:14.637Z,2.12
2018-08-06T15:27:43.521Z,2.02
2018-08-06T15:30:12.710Z,2.02
2018-08-06T15:32:42.458Z,2.00
2018-08-06T15:35:12.439Z,2.08
2018-08-06T15:37:43.039Z,2.10
2018-08-06T15:40:18.458Z,2.12
2018-08-06T15:42:47.803Z,2.40
2018-08-06T15:45:17.168Z,2.00
2018-08-06T15:47:46.835Z,2.33
2018-08-06T15:50:17.170Z,2.60
2018-08-06T15:52:45.970Z,2.60
2018-08-06T15:55:14.772Z,2.20
2018-08-06T15:57:43.710Z,2.55
2018-08-06T16:00:14.182Z,2.05
2018-08-06T16:02:44.497Z,1.95
2018-08-06T16:05:14.142Z,2.20
2018-08-06T16:07:43.636Z,2.10
2018-08-06T16:10:13.050Z,2.22
2018-08-06T16:12:43.158Z,2.15
2018-08-06T16:15:13.551Z,2.08
2018-08-06T16:17:44.375Z,2.27
2018-08-06T16:20:14.420Z,2.17
2018-08-06T16:22:43.909Z,2.30
2018-08-06T16:25:13.006Z,2.50
2018-08-06T16:27:48.654Z,2.22
2018-08-06T16:30:21.150Z,2.12
2018-08-06T16:32:50.832Z,2.30
2018-08-06T16:35:20.770Z,1.90
2018-08-06T16:37:50.830Z,1.77
2018-08-06T16:40:20.103Z,2.27
2018-08-06T16:42:49.402Z,1.77
2018-08-06T16:45:18.219Z,2.08
2018-08-06T16:47:47.420Z,2.40
2018-08-06T16:50:16.866Z,2.42
2018-08-06T16:52:46.945Z,2.43
2018-08-06T16:55:15.592Z,2.13
2018-08-06T16:57:44.396Z,2.10
2018-08-06T17:00:15.280Z,2.37
2018-08-06T17:02:44.300Z,2.07
2018-08-06T17:05:13.715Z,2.30
2018-08-06T17:07:44.440Z,2.43
2018-08-06T17:10:15.495Z,2.20
2018-08-06T17:12:45.225Z,2.50
2018-08-06T17:15:15.225Z,2.70
2018-08-06T17:17:45.587Z,2.90
2018-08-06T17:20:15.981Z,2.63
2018-08-06T17:22:46.140Z,2.47
2018-08-06T17:25:15.027Z,2.50
2018-08-06T17:27:43.881Z,2.50
2018-08-06T17:30:13.234Z,2.40
2018-08-06T17:32:42.518Z,2.70
2018-08-06T17:35:11.874Z,2.37
2018-08-06T17:37:40.714Z,2.80
2018-08-06T17:40:13.297Z,3.17
2018-08-06T17:42:42.634Z,2.80
2018-08-06T17:45:15.125Z,2.80
2018-08-06T17:47:43.986Z,2.67
2018-08-06T17:50:15.245Z,2.90
2018-08-06T17:52:45.516Z,2.90
2018-08-06T17:55:15.341Z,3.03
2018-08-06T17:57:44.597Z,2.90
2018-08-06T18:00:13.545Z,2.73
2018-08-06T18:02:42.838Z,2.43
2018-08-06T18:05:13.411Z,2.70
2018-08-06T18:07:43.164Z,2.33
2018-08-06T18:10:13.757Z,2.53
2018-08-06T18:12:43.873Z,2.30
2018-08-06T18:15:13.342Z,1.90
2018-08-06T18:17:42.191Z,2.03
2018-08-06T18:20:12.836Z,2.00
2018-08-06T18:22:42.304Z,1.80
2018-08-06T18:25:13.192Z,2.00
2018-08-06T18:27:42.590Z,2.03
2018-08-06T18:30:13.089Z,2.30
2018-08-06T18:32:42.068Z,1.90
2018-08-06T18:35:12.644Z,1.93
2018-08-06T18:37:41.823Z,1.80
2018-08-06T18:40:11.747Z,2.00
2018-08-06T18:42:41.103Z,2.10
2018-08-06T18:45:12.192Z,2.50
2018-08-06T18:47:41.673Z,2.50
2018-08-06T18:50:12.100Z,2.50
2018-08-06T18:52:42.054Z,2.30
2018-08-06T18:55:12.516Z,2.70
2018-08-06T18:57:41.545Z,2.33
2018-08-06T19:00:12.098Z,3.00
2018-08-06T19:02:40.926Z,3.33
2018-08-06T19:05:10.213Z,3.17
2018-08-06T19:07:39.274Z,3.33
2018-08-06T19:10:08.446Z,3.30
2018-08-06T19:12:42.822Z,3.53
2018-08-06T19:15:12.007Z,3.60
2018-08-06T19:17:46.247Z,3.20
2018-08-06T19:20:15.330Z,4.27
2018-08-06T19:22:44.258Z,4.10
2018-08-06T19:25:18.421Z,3.17
2018-08-06T19:27:47.167Z,3.30
2018-08-06T19:30:15.923Z,3.20
2018-08-06T19:32:44.726Z,3.00
2018-08-06T19:35:13.690Z,2.80
2018-08-06T19:37:45.020Z,2.50
2018-08-06T19:40:13.792Z,2.57
2018-08-06T19:42:47.991Z,2.40
2018-08-06T19:45:16.747Z,2.13
2018-08-06T19:47:45.610Z,2.23
2018-08-06T19:50:19.885Z,2.00
2018-08-06T19:52:48.635Z,1.83
2018-08-06T19:55:22.850Z,1.63
2018-08-06T19:57:52.027Z,1.90
2018-08-06T20:00:21.286Z,1.87
2018-08-06T20:02:50.206Z,1.70
2018-08-06T20:05:18.983Z,2.03
2018-08-06T20:07:47.786Z,2.20
2018-08-06T20:10:16.556Z,1.90
2018-08-06T20:12:45.343Z,2.23
2018-08-06T20:15:21.641Z,2.17
2018-08-06T20:17:50.570Z,2.40
2018-08-06T20:20:19.268Z,2.30
2018-08-06T20:22:48.054Z,2.33
2018-08-06T20:25:18.174Z,2.50
2018-08-06T20:27:48.206Z,2.57
2018-08-06T20:30:18.199Z,3.00
2018-08-06T20:32:47.053Z,2.37
2018-08-06T20:35:16.624Z,2.53
2018-08-06T20:37:45.398Z,2.53
2018-08-06T20:40:15.081Z,2.83
2018-08-06T20:42:44.925Z,3.20
2018-08-06T20:45:15.941Z,3.00
2018-08-06T20:47:44.938Z,2.73
2018-08-06T20:50:17.440Z,2.90
2018-08-06T20:52:47.159Z,2.80
2018-08-06T20:55:15.962Z,2.87
2018-08-06T20:57:45.113Z,3.20
2018-08-06T21:00:16.795Z,2.80
2018-08-06T21:02:46.086Z,2.93
2018-08-06T21:05:14.832Z,3.03
2018-08-06T21:07:43.603Z,3.07
2018-08-06T21:10:13.640Z,3.27
2018-08-06T21:12:42.438Z,3.00
2018-08-06T21:15:12.571Z,3.80
2018-08-06T21:17:41.359Z,3.43
2018-08-06T21:20:11.638Z,3.37
2018-08-06T21:22:41.285Z,3.30
2018-08-06T21:25:10.714Z,3.30
2018-08-06T21:27:40.334Z,3.77
2018-08-06T21:30:10.449Z,3.30
2018-08-06T21:32:39.428Z,3.33
2018-08-06T21:35:08.161Z,3.40
2018-08-06T21:37:36.964Z,3.23
2018-08-06T21:40:07.598Z,3.50
2018-08-06T21:42:36.386Z,3.57
2018-08-06T21:45:05.935Z,3.80
2018-08-06T21:47:34.690Z,4.20
2018-08-06T21:50:03.478Z,3.47
2018-08-06T21:52:32.265Z,3.50
2018-08-06T21:55:01.043Z,3.83
2018-08-06T21:57:29.907Z,3.77
2018-08-06T21:59:58.663Z,3.70
2018-08-06T22:02:27.517Z,3.53
2018-08-06T22:04:56.635Z,4.13
2018-08-06T22:07:25.540Z,3.57
2018-08-06T22:09:54.307Z,3.33
2018-08-06T22:12:23.447Z,3.37
2018-08-06T22:14:52.538Z,3.80
2018-08-06T22:17:21.281Z,3.97
2018-08-06T22:19:50.060Z,4.10
2018-08-06T22:22:18.822Z,3.20
2018-08-06T22:24:47.572Z,3.90
2018-08-06T22:27:16.370Z,3.83
2018-08-06T22:29:45.129Z,3.37
2018-08-06T22:32:13.914Z,3.20
2018-08-06T22:34:42.706Z,3.87
2018-08-06T22:37:12.631Z,3.67
2018-08-06T22:39:41.395Z,3.20
2018-08-06T22:42:10.474Z,3.13
2018-08-06T22:44:39.251Z,3.90
2018-08-06T22:47:08.042Z,3.77
2018-08-06T22:49:36.826Z,3.77
2018-08-06T22:52:05.662Z,3.77
2018-08-06T22:54:34.437Z,3.63
2018-08-06T22:57:03.241Z,4.43
2018-08-06T22:59:32.015Z,4.13
2018-08-06T23:02:00.743Z,4.33
2018-08-06T23:04:29.509Z,3.63
2018-08-06T23:06:58.260Z,4.30
2018-08-06T23:09:27.034Z,4.20
2018-08-06T23:11:55.815Z,3.83
2018-08-06T23:14:24.630Z,4.20
2018-08-06T23:16:53.373Z,3.80
2018-08-06T23:19:22.142Z,4.47
2018-08-06T23:21:50.901Z,4.93
2018-08-06T23:24:19.647Z,4.00
2018-08-06T23:26:48.443Z,4.47
2018-08-06T23:29:17.221Z,3.67
2018-08-06T23:31:46.414Z,4.37
2018-08-06T23:34:15.258Z,5.10
2018-08-06T23:36:44.015Z,4.03
2018-08-06T23:39:13.343Z,4.77
2018-08-06T23:41:42.954Z,4.50
2018-08-06T23:44:11.895Z,5.20
2018-08-06T23:46:41.922Z,4.30
2018-08-06T23:49:10.680Z,5.17
2018-08-06T23:51:39.500Z,4.60
2018-08-06T23:54:08.351Z,4.57
2018-08-06T23:56:37.261Z,5.20
2018-08-06T23:59:06.286Z,4.37
